Time;durP1;ratioP1;P1;durP2;ratioP2;P2;SDS_P1;SDS_P2;PMS_P1;PMS_P2;Temp;Humidity;BMP_temperature;BMP_pressure;BME280_temperature;BME280_humidity;BME280_pressure;Samples;Min_cycle;Max_cycle;Signal;HPM_P1;HPM_P2
2023/06/28 00:01:09;;;;;;;4.85;2.28;;;;;;;;;;5090604;28;20432;-65
2023/06/28 00:03:34;;;;;;;6.53;2.22;;;;;;;;;;5091362;28;20024;-66
2023/06/28 00:05:59;;;;;;;5.23;1.90;;;;;;;;;;5090545;28;20511;-66
2023/06/28 00:08:25;;;;;;;9.53;2.67;;;;;;;;;;5090988;28;20364;-65
2023/06/28 00:10:50;;;;;;;6.77;2.73;;;;;;;;;;5091337;28;20270;-66
2023/06/28 00:13:16;;;;;;;6.25;2.63;;;;;;;;;;5090539;28;20277;-66
2023/06/28 00:15:41;;;;;;;8.48;2.25;;;;;;;;;;5090105;28;20032;-66
2023/06/28 00:18:07;;;;;;;5.87;2.50;;;;;;;;;;5078602;28;20044;-66
2023/06/28 00:20:33;;;;;;;7.97;3.13;;;;;;;;;;5090189;28;20311;-66
2023/06/28 00:22:59;;;;;;;4.72;2.85;;;;;;;;;;5078175;28;20020;-66
2023/06/28 00:25:24;;;;;;;4.72;2.10;;;;;;;;;;5090097;28;20046;-66
2023/06/28 00:27:50;;;;;;;9.02;2.13;;;;;;;;;;5090525;28;20051;-66
2023/06/28 00:30:16;;;;;;;6.77;2.30;;;;;;;;;;5091135;28;20036;-66
2023/06/28 00:32:41;;;;;;;7.43;2.72;;;;;;;;;;5088906;28;20278;-66
2023/06/28 00:35:06;;;;;;;6.13;2.83;;;;;;;;;;5090724;28;20046;-66
2023/06/28 00:37:32;;;;;;;5.63;2.75;;;;;;;;;;5090654;28;20270;-66
2023/06/28 00:39:57;;;;;;;5.53;2.70;;;;;;;;;;5091093;28;20024;-66
2023/06/28 00:42:23;;;;;;;5.15;2.08;;;;;;;;;;5090902;28;20123;-66
2023/06/28 00:44:48;;;;;;;6.57;2.78;;;;;;;;;;5083747;28;20036;-66
2023/06/28 00:47:14;;;;;;;6.28;2.53;;;;;;;;;;5071811;28;20063;-66
2023/06/28 00:49:39;;;;;;;5.25;2.40;;;;;;;;;;5087021;28;20016;-66
2023/06/28 00:52:08;;;;;;;4.32;2.30;;;;;;;;;;5094034;28;20040;-66
2023/06/28 00:54:33;;;;;;;6.30;2.90;;;;;;;;;;5094242;28;20028;-66
2023/06/28 00:56:59;;;;;;;4.90;2.20;;;;;;;;;;5093819;28;20027;-66
2023/06/28 00:59:24;;;;;;;7.82;2.75;;;;;;;;;;5093168;28;20050;-66
2023/06/28 01:01:49;;;;;;;7.97;2.75;;;;;;;;;;5071873;28;20039;-66
2023/06/28 01:04:15;;;;;;;5.13;2.40;;;;;;;;;;5083874;28;20024;-66
2023/06/28 01:06:41;;;;;;;7.32;3.00;;;;;;;;;;5093397;28;20301;-66
2023/06/28 01:09:11;;;;;;;7.25;2.40;;;;;;;;;;5093350;28;20111;-66
2023/06/28 01:11:36;;;;;;;5.53;2.65;;;;;;;;;;5093335;28;20035;-66
2023/06/28 01:14:02;;;;;;;5.68;2.50;;;;;;;;;;5094016;28;20020;-65
2023/06/28 01:16:28;;;;;;;6.65;2.50;;;;;;;;;;5081297;28;20020;-65
2023/06/28 01:18:54;;;;;;;9.85;2.75;;;;;;;;;;5093952;28;20383;-65
2023/06/28 01:21:20;;;;;;;6.57;2.85;;;;;;;;;;5091155;28;20042;-66
2023/06/28 01:23:46;;;;;;;7.18;2.83;;;;;;;;;;5083110;28;20539;-66
2023/06/28 01:26:11;;;;;;;7.82;2.85;;;;;;;;;;5093355;28;20024;-65
2023/06/28 01:28:37;;;;;;;5.72;3.13;;;;;;;;;;5094017;28;20118;-66
2023/06/28 01:31:03;;;;;;;4.68;2.53;;;;;;;;;;5094009;28;20063;-65
2023/06/28 01:33:28;;;;;;;9.85;2.70;;;;;;;;;;5093440;28;20078;-66
2023/06/28 01:35:54;;;;;;;4.47;2.45;;;;;;;;;;5092352;28;20386;-66
2023/06/28 01:38:20;;;;;;;6.63;2.65;;;;;;;;;;5093857;28;20115;-66
2023/06/28 01:40:48;;;;;;;3.53;2.20;;;;;;;;;;5087025;28;20120;-66
2023/06/28 01:43:14;;;;;;;3.85;2.53;;;;;;;;;;5092843;28;20111;-66
2023/06/28 01:45:39;;;;;;;5.20;2.75;;;;;;;;;;5093268;28;20051;-66
2023/06/28 01:48:04;;;;;;;5.70;2.17;;;;;;;;;;5080188;28;20110;-66
2023/06/28 01:50:30;;;;;;;6.40;2.92;;;;;;;;;;5092566;28;20486;-67
2023/06/28 01:52:58;;;;;;;8.63;2.80;;;;;;;;;;5090935;28;20032;-65
2023/06/28 01:55:23;;;;;;;4.32;2.30;;;;;;;;;;5081445;28;20086;-66
2023/06/28 01:57:49;;;;;;;9.70;2.83;;;;;;;;;;5092846;28;20435;-66
2023/06/28 02:00:15;;;;;;;6.03;2.80;;;;;;;;;;5091756;28;20024;-66
2023/06/28 02:02:40;;;;;;;7.75;2.80;;;;;;;;;;5092361;28;20024;-66
2023/06/28 02:05:06;;;;;;;8.75;2.60;;;;;;;;;;5092471;28;20386;-66
2023/06/28 02:07:31;;;;;;;6.65;2.38;;;;;;;;;;5082459;28;20031;-66
2023/06/28 02:09:56;;;;;;;4.80;2.50;;;;;;;;;;5093082;28;20024;-66
2023/06/28 02:12:22;;;;;;;6.17;3.00;;;;;;;;;;5092944;28;20048;-66
2023/06/28 02:14:51;;;;;;;7.72;2.60;;;;;;;;;;5091857;28;20297;-66
2023/06/28 02:17:17;;;;;;;9.55;2.60;;;;;;;;;;5089388;28;20482;-66
2023/06/28 02:19:43;;;;;;;4.50;2.17;;;;;;;;;;5092668;28;20018;-66
2023/06/28 02:22:08;;;;;;;5.78;2.20;;;;;;;;;;5091759;28;20070;-66
2023/06/28 02:24:34;;;;;;;5.38;2.63;;;;;;;;;;5092121;28;20047;-66
2023/06/28 02:26:59;;;;;;;9.57;2.92;;;;;;;;;;5091307;28;20078;-66
2023/06/28 02:29:25;;;;;;;10.00;2.77;;;;;;;;;;5092319;28;20016;-65
2023/06/28 02:31:50;;;;;;;7.50;3.17;;;;;;;;;;5092360;28;20300;-65
2023/06/28 02:34:16;;;;;;;5.25;2.35;;;;;;;;;;5092899;28;20095;-66
2023/06/28 02:36:41;;;;;;;4.73;2.40;;;;;;;;;;5091693;28;20836;-66
2023/06/28 02:39:06;;;;;;;4.97;2.50;;;;;;;;;;5092726;28;20331;-66
2023/06/28 02:41:31;;;;;;;9.85;2.80;;;;;;;;;;5092303;28;20277;-66
2023/06/28 02:43:56;;;;;;;5.35;3.00;;;;;;;;;;5092425;28;20052;-66
2023/06/28 02:46:22;;;;;;;6.23;2.73;;;;;;;;;;5091228;28;20466;-66
2023/06/28 02:48:47;;;;;;;8.20;2.80;;;;;;;;;;5091700;28;20622;-65
2023/06/28 02:51:12;;;;;;;8.85;2.70;;;;;;;;;;5091873;28;20051;-65
2023/06/28 02:53:37;;;;;;;7.32;2.88;;;;;;;;;;5091982;28;20063;-65
2023/06/28 02:56:03;;;;;;;6.65;3.03;;;;;;;;;;5090981;28;20027;-65
2023/06/28 02:58:28;;;;;;;5.82;2.78;;;;;;;;;;5082876;28;20479;-65
2023/06/28 03:00:54;;;;;;;6.30;3.13;;;;;;;;;;5088049;28;20047;-65
2023/06/28 03:03:19;;;;;;;5.13;2.75;;;;;;;;;;5090508;28;20073;-65
2023/06/28 03:05:45;;;;;;;4.75;2.42;;;;;;;;;;5091010;28;20020;-65
2023/06/28 03:08:11;;;;;;;4.68;2.40;;;;;;;;;;5091656;28;20042;-65
2023/06/28 03:10:36;;;;;;;7.22;3.05;;;;;;;;;;5091412;28;20020;-65
2023/06/28 03:13:01;;;;;;;6.80;2.87;;;;;;;;;;5091118;28;20022;-65
2023/06/28 03:15:26;;;;;;;4.30;2.53;;;;;;;;;;5090571;28;21086;-65
2023/06/28 03:17:52;;;;;;;6.55;2.30;;;;;;;;;;5091676;28;20270;-65
2023/06/28 03:20:17;;;;;;;10.43;3.20;;;;;;;;;;5091874;28;20421;-65
2023/06/28 03:22:42;;;;;;;4.75;2.55;;;;;;;;;;5091830;28;20278;-65
2023/06/28 03:25:08;;;;;;;7.85;2.63;;;;;;;;;;5092052;28;20482;-65
2023/06/28 03:27:33;;;;;;;7.13;2.85;;;;;;;;;;5091060;28;20058;-65
2023/06/28 03:29:58;;;;;;;7.10;3.13;;;;;;;;;;5091441;28;20107;-65
2023/06/28 03:32:23;;;;;;;8.60;2.90;;;;;;;;;;5089734;28;20365;-65
2023/06/28 03:34:49;;;;;;;6.28;3.38;;;;;;;;;;5090951;28;20407;-65
2023/06/28 03:37:16;;;;;;;5.47;2.88;;;;;;;;;;5090989;28;20016;-65
2023/06/28 03:39:41;;;;;;;5.60;3.33;;;;;;;;;;5091077;28;20031;-66
2023/06/28 03:42:07;;;;;;;6.82;2.90;;;;;;;;;;5091443;28;20099;-65
2023/06/28 03:44:32;;;;;;;5.22;3.03;;;;;;;;;;5090871;28;20020;-66
2023/06/28 03:46:57;;;;;;;6.97;3.27;;;;;;;;;;5091272;28;20081;-66
2023/06/28 03:49:22;;;;;;;7.57;3.20;;;;;;;;;;5090965;28;20734;-67
2023/06/28 03:51:48;;;;;;;6.07;2.80;;;;;;;;;;5090944;28;20372;-66
2023/06/28 03:54:13;;;;;;;8.00;3.22;;;;;;;;;;5077966;28;20107;-65
2023/06/28 03:56:39;;;;;;;8.27;3.60;;;;;;;;;;5083488;28;20017;-66
2023/06/28 03:59:04;;;;;;;7.55;3.88;;;;;;;;;;5084692;28;20084;-65
2023/06/28 04:01:29;;;;;;;7.88;3.80;;;;;;;;;;5079953;28;20030;-67
2023/06/28 04:03:55;;;;;;;6.45;3.30;;;;;;;;;;5090523;28;20036;-66
2023/06/28 04:06:20;;;;;;;12.20;3.90;;;;;;;;;;5090043;28;20020;-67
2023/06/28 04:08:46;;;;;;;5.28;3.13;;;;;;;;;;5091516;28;20526;-66
2023/06/28 04:11:12;;;;;;;5.63;3.47;;;;;;;;;;5079743;28;20020;-66
2023/06/28 04:13:38;;;;;;;6.68;3.85;;;;;;;;;;5091215;28;20104;-66
2023/06/28 04:16:03;;;;;;;11.20;3.83;;;;;;;;;;5090838;28;20012;-66
2023/06/28 04:18:28;;;;;;;12.35;4.28;;;;;;;;;;5090989;28;20024;-66
2023/06/28 04:20:54;;;;;;;6.75;3.47;;;;;;;;;;5090612;28;20078;-66
2023/06/28 04:23:19;;;;;;;8.05;4.15;;;;;;;;;;5090578;28;20030;-67
2023/06/28 04:25:44;;;;;;;5.67;3.73;;;;;;;;;;5090611;28;20024;-67
2023/06/28 04:28:09;;;;;;;9.98;4.03;;;;;;;;;;5090157;28;20354;-66
2023/06/28 04:30:35;;;;;;;11.00;4.17;;;;;;;;;;5090119;28;20077;-65
2023/06/28 04:33:04;;;;;;;8.85;4.70;;;;;;;;;;5088994;28;20365;-66
2023/06/28 04:35:30;;;;;;;8.82;3.78;;;;;;;;;;5089994;28;20055;-66
2023/06/28 04:37:56;;;;;;;5.53;3.72;;;;;;;;;;5089984;28;20482;-65
2023/06/28 04:40:21;;;;;;;7.65;4.28;;;;;;;;;;5090955;28;20031;-65
2023/06/28 04:42:49;;;;;;;8.05;3.92;;;;;;;;;;5090309;28;20383;-68
2023/06/28 04:45:14;;;;;;;9.40;3.75;;;;;;;;;;5089577;28;20020;-65
2023/06/28 04:47:40;;;;;;;9.13;4.43;;;;;;;;;;5089469;28;20046;-66
2023/06/28 04:50:05;;;;;;;10.90;4.10;;;;;;;;;;5090304;28;20024;-66
2023/06/28 04:52:30;;;;;;;9.75;4.55;;;;;;;;;;5090191;28;20461;-66
2023/06/28 04:54:56;;;;;;;6.03;3.90;;;;;;;;;;5076630;28;20089;-67
2023/06/28 04:57:21;;;;;;;6.30;4.23;;;;;;;;;;5089436;28;20783;-66
2023/06/28 04:59:46;;;;;;;8.13;4.18;;;;;;;;;;5089768;28;20270;-66
2023/06/28 05:02:12;;;;;;;7.55;3.58;;;;;;;;;;5090678;28;20127;-66
2023/06/28 05:04:37;;;;;;;7.38;4.53;;;;;;;;;;5090246;28;20442;-66
2023/06/28 05:07:04;;;;;;;9.30;4.20;;;;;;;;;;5090122;28;20036;-65
2023/06/28 05:09:30;;;;;;;8.43;4.70;;;;;;;;;;5090155;28;20437;-66
2023/06/28 05:11:55;;;;;;;8.15;4.88;;;;;;;;;;5090326;28;20046;-66
2023/06/28 05:14:21;;;;;;;9.23;4.72;;;;;;;;;;5090536;28;20028;-65
2023/06/28 05:16:46;;;;;;;7.60;4.78;;;;;;;;;;5089536;28;20016;-66
2023/06/28 05:19:11;;;;;;;9.70;5.07;;;;;;;;;;5088863;28;20024;-66
2023/06/28 05:21:36;;;;;;;11.87;5.50;;;;;;;;;;5089963;28;20305;-66
2023/06/28 05:24:02;;;;;;;9.67;5.57;;;;;;;;;;5090289;28;20802;-66
2023/06/28 05:26:29;;;;;;;14.02;5.13;;;;;;;;;;5088746;28;20752;-66
2023/06/28 05:28:54;;;;;;;6.45;4.85;;;;;;;;;;5089651;28;20099;-66
2023/06/28 05:31:19;;;;;;;9.87;5.33;;;;;;;;;;5089903;28;20508;-66
2023/06/28 05:33:45;;;;;;;8.88;5.35;;;;;;;;;;5090200;28;20259;-66
2023/06/28 05:36:10;;;;;;;7.73;4.97;;;;;;;;;;5093496;28;20104;-66
2023/06/28 05:38:35;;;;;;;14.05;5.50;;;;;;;;;;5084994;28;20748;-66
2023/06/28 05:41:14;;;;;;;9.83;5.43;;;;;;;;;;5083058;28;20048;-66
2023/06/28 05:43:41;;;;;;;10.38;5.18;;;;;;;;;;5092374;28;20266;-66
2023/06/28 05:46:06;;;;;;;6.78;5.35;;;;;;;;;;5092565;28;20484;-66
2023/06/28 05:48:31;;;;;;;8.88;5.00;;;;;;;;;;5091989;28;20052;-66
2023/06/28 05:50:57;;;;;;;10.23;5.43;;;;;;;;;;5087854;28;20035;-66
2023/06/28 05:53:22;;;;;;;9.33;5.13;;;;;;;;;;5092365;28;20020;-66
2023/06/28 05:55:47;;;;;;;13.73;6.15;;;;;;;;;;5091525;28;20254;-65
2023/06/28 05:58:12;;;;;;;13.00;6.38;;;;;;;;;;5092561;28;20028;-66
2023/06/28 06:00:37;;;;;;;15.07;8.48;;;;;;;;;;5092519;28;20046;-66
2023/06/28 06:03:03;;;;;;;10.13;7.23;;;;;;;;;;5091834;28;20050;-66
2023/06/28 06:05:28;;;;;;;12.07;6.78;;;;;;;;;;5093002;28;20278;-66
2023/06/28 06:07:53;;;;;;;10.27;6.43;;;;;;;;;;5092554;28;20070;-66
2023/06/28 06:10:18;;;;;;;8.38;5.05;;;;;;;;;;5093077;28;20026;-66
2023/06/28 06:12:44;;;;;;;7.80;5.33;;;;;;;;;;5088025;28;20376;-66
2023/06/28 06:15:09;;;;;;;14.07;4.38;;;;;;;;;;5089348;28;20266;-66
2023/06/28 06:17:35;;;;;;;8.27;4.80;;;;;;;;;;5088543;28;20162;-66
2023/06/28 06:20:00;;;;;;;10.45;5.15;;;;;;;;;;5089706;28;20483;-66
2023/06/28 06:22:25;;;;;;;8.73;3.95;;;;;;;;;;5092320;28;20028;-65
2023/06/28 06:24:51;;;;;;;8.80;4.47;;;;;;;;;;5087596;28;20024;-65
2023/06/28 06:27:16;;;;;;;7.40;4.07;;;;;;;;;;5091837;28;20507;-65
2023/06/28 06:29:41;;;;;;;11.53;3.87;;;;;;;;;;5092411;28;20028;-65
2023/06/28 06:32:07;;;;;;;7.03;3.97;;;;;;;;;;5091785;28;20266;-65
2023/06/28 06:34:32;;;;;;;7.18;3.88;;;;;;;;;;5092016;28;20107;-65
2023/06/28 06:36:58;;;;;;;11.90;4.47;;;;;;;;;;5085268;28;20028;-65
2023/06/28 06:39:23;;;;;;;10.68;4.38;;;;;;;;;;5092299;28;20316;-65
2023/06/28 06:41:49;;;;;;;9.70;4.15;;;;;;;;;;5092342;28;20023;-65
2023/06/28 06:44:14;;;;;;;15.23;4.43;;;;;;;;;;5092658;28;20093;-65
2023/06/28 06:46:39;;;;;;;7.68;3.70;;;;;;;;;;5090994;28;20493;-65
2023/06/28 06:49:04;;;;;;;10.03;3.97;;;;;;;;;;5091397;28;20062;-65
2023/06/28 06:51:30;;;;;;;6.85;4.05;;;;;;;;;;5088194;28;20347;-65
2023/06/28 06:53:55;;;;;;;9.00;3.88;;;;;;;;;;5069818;28;20069;-65
2023/06/28 06:56:22;;;;;;;10.18;4.03;;;;;;;;;;5091604;28;20035;-65
2023/06/28 06:58:47;;;;;;;11.95;4.20;;;;;;;;;;5092155;28;20047;-65
2023/06/28 07:01:13;;;;;;;12.63;4.90;;;;;;;;;;5091155;28;20067;-66
2023/06/28 07:03:39;;;;;;;10.20;5.20;;;;;;;;;;5073533;28;20027;-65
2023/06/28 07:06:05;;;;;;;8.75;4.13;;;;;;;;;;5078827;28;20031;-65
2023/06/28 07:08:30;;;;;;;8.77;4.47;;;;;;;;;;5086827;28;20407;-65
2023/06/28 07:10:55;;;;;;;10.60;4.78;;;;;;;;;;5091915;28;20095;-65
2023/06/28 07:13:20;;;;;;;6.82;3.97;;;;;;;;;;5092486;28;20127;-65
2023/06/28 07:15:46;;;;;;;14.73;5.07;;;;;;;;;;5091786;28;20017;-66
2023/06/28 07:18:11;;;;;;;8.32;4.45;;;;;;;;;;5091752;28;20024;-65
2023/06/28 07:20:36;;;;;;;9.20;4.32;;;;;;;;;;5091612;28;20431;-65
2023/06/28 07:23:01;;;;;;;12.13;4.70;;;;;;;;;;5091198;28;20042;-65
2023/06/28 07:25:27;;;;;;;6.63;3.72;;;;;;;;;;5090715;28;20753;-65
2023/06/28 07:27:52;;;;;;;5.90;3.60;;;;;;;;;;5091689;28;20157;-65
2023/06/28 07:30:18;;;;;;;10.13;4.27;;;;;;;;;;5091120;28;20026;-66
2023/06/28 07:32:43;;;;;;;7.37;3.83;;;;;;;;;;5090963;28;20601;-65
2023/06/28 07:35:08;;;;;;;9.97;4.13;;;;;;;;;;5091515;28;20274;-65
2023/06/28 07:37:33;;;;;;;7.63;3.85;;;;;;;;;;5090377;28;20266;-65
2023/06/28 07:39:59;;;;;;;7.43;4.22;;;;;;;;;;5091995;28;20040;-66
2023/06/28 07:42:24;;;;;;;8.93;4.27;;;;;;;;;;5091341;28;20531;-65
2023/06/28 07:44:49;;;;;;;8.88;4.38;;;;;;;;;;5091681;28;20768;-65
2023/06/28 07:47:15;;;;;;;11.38;4.40;;;;;;;;;;5092044;28;20036;-65
2023/06/28 07:49:40;;;;;;;11.07;4.53;;;;;;;;;;5091462;28;20141;-65
2023/06/28 07:52:06;;;;;;;14.70;4.95;;;;;;;;;;5092181;28;20020;-66
2023/06/28 07:54:31;;;;;;;10.80;5.05;;;;;;;;;;5087771;28;20025;-65
2023/06/28 07:56:56;;;;;;;9.35;4.47;;;;;;;;;;5081788;28;20471;-65
2023/06/28 07:59:22;;;;;;;7.90;4.13;;;;;;;;;;5091753;28;20455;-65
2023/06/28 08:01:48;;;;;;;13.60;4.00;;;;;;;;;;5091556;28;20279;-65
2023/06/28 08:04:15;;;;;;;9.52;4.20;;;;;;;;;;5091572;28;20031;-66
2023/06/28 08:06:41;;;;;;;13.57;4.25;;;;;;;;;;5091580;28;20036;-65
2023/06/28 08:09:06;;;;;;;6.13;3.92;;;;;;;;;;5091287;28;20063;-65
2023/06/28 08:11:31;;;;;;;7.53;3.43;;;;;;;;;;5091481;28;20149;-65
2023/06/28 08:13:57;;;;;;;8.37;3.87;;;;;;;;;;5091572;28;20285;-65
2023/06/28 08:16:22;;;;;;;8.40;3.20;;;;;;;;;;5091770;28;20632;-65
2023/06/28 08:18:47;;;;;;;7.82;4.05;;;;;;;;;;5090292;28;20063;-67
2023/06/28 08:21:13;;;;;;;6.03;2.80;;;;;;;;;;5091449;28;20054;-66
2023/06/28 08:23:38;;;;;;;8.27;3.67;;;;;;;;;;5091211;28;20312;-65
2023/06/28 08:26:04;;;;;;;6.53;3.43;;;;;;;;;;5091760;28;20020;-66
2023/06/28 08:28:29;;;;;;;13.13;4.43;;;;;;;;;;5091788;28;20328;-67
2023/06/28 08:30:54;;;;;;;6.80;3.75;;;;;;;;;;5091248;28;20459;-66
2023/06/28 08:33:21;;;;;;;6.55;4.07;;;;;;;;;;5091568;28;20031;-66
2023/06/28 08:35:46;;;;;;;8.52;4.32;;;;;;;;;;5091584;28;20062;-66
2023/06/28 08:38:11;;;;;;;11.03;5.10;;;;;;;;;;5091396;28;20506;-66
2023/06/28 08:40:37;;;;;;;11.57;4.68;;;;;;;;;;5091405;28;20708;-66
2023/06/28 08:43:02;;;;;;;11.18;4.43;;;;;;;;;;5079346;28;20072;-66
2023/06/28 08:45:30;;;;;;;10.25;4.75;;;;;;;;;;5091183;28;20031;-66
2023/06/28 08:47:55;;;;;;;8.32;4.50;;;;;;;;;;5091496;28;20028;-66
2023/06/28 08:50:22;;;;;;;15.07;5.82;;;;;;;;;;5080947;28;20029;-66
2023/06/28 08:52:48;;;;;;;9.88;6.03;;;;;;;;;;5089096;28;20031;-66
2023/06/28 08:55:13;;;;;;;12.02;5.13;;;;;;;;;;5091588;28;20028;-66
2023/06/28 08:57:40;;;;;;;12.33;5.73;;;;;;;;;;5091137;28;20034;-66
2023/06/28 09:00:07;;;;;;;14.73;5.75;;;;;;;;;;5091289;28;20277;-67
2023/06/28 09:02:34;;;;;;;13.77;5.68;;;;;;;;;;5090696;28;20027;-66
2023/06/28 09:04:59;;;;;;;9.63;4.85;;;;;;;;;;5091056;28;20132;-66
2023/06/28 09:07:24;;;;;;;11.15;4.43;;;;;;;;;;5091091;28;20099;-66
2023/06/28 09:09:51;;;;;;;8.40;3.67;;;;;;;;;;5094156;28;20110;-66
2023/06/28 09:12:16;;;;;;;11.77;4.35;;;;;;;;;;5081898;28;20033;-66
2023/06/28 09:14:42;;;;;;;9.45;3.92;;;;;;;;;;5094048;28;20036;-66
2023/06/28 09:17:07;;;;;;;8.65;3.53;;;;;;;;;;5094275;28;20017;-66
2023/06/28 09:19:32;;;;;;;11.85;3.72;;;;;;;;;;5094430;28;20035;-67
2023/06/28 09:22:01;;;;;;;7.68;3.63;;;;;;;;;;5094729;28;20027;-66
2023/06/28 09:24:26;;;;;;;27.33;4.18;;;;;;;;;;5094089;28;20382;-66
2023/06/28 09:26:51;;;;;;;12.37;4.43;;;;;;;;;;5094348;28;20035;-67
2023/06/28 09:29:17;;;;;;;6.70;3.47;;;;;;;;;;5093993;28;20831;-66
2023/06/28 09:31:44;;;;;;;9.60;4.07;;;;;;;;;;5094463;28;21937;-66
2023/06/28 09:34:09;;;;;;;20.77;4.25;;;;;;;;;;5094141;28;20274;-67
2023/06/28 09:36:37;;;;;;;7.85;3.85;;;;;;;;;;5093790;28;20024;-67
2023/06/28 09:39:03;;;;;;;10.63;4.00;;;;;;;;;;5094115;28;20035;-66
2023/06/28 09:41:41;;;;;;;7.28;3.10;;;;;;;;;;5092352;28;20024;-67
2023/06/28 09:44:10;;;;;;;8.07;3.10;;;;;;;;;;5094430;28;20095;-66
2023/06/28 09:46:41;;;;;;;8.52;3.70;;;;;;;;;;5093752;28;21281;-67
2023/06/28 09:49:18;;;;;;;6.68;3.13;;;;;;;;;;5093927;28;20421;-67
2023/06/28 09:51:43;;;;;;;9.48;4.35;;;;;;;;;;5093955;28;20024;-67
2023/06/28 09:54:08;;;;;;;13.27;4.10;;;;;;;;;;5093931;28;20534;-67
2023/06/28 09:56:38;;;;;;;12.50;4.50;;;;;;;;;;5093772;28;20598;-67
2023/06/28 09:59:08;;;;;;;7.85;3.42;;;;;;;;;;5094364;28;20669;-67
2023/06/28 10:01:38;;;;;;;8.68;3.50;;;;;;;;;;5080748;28;20024;-67
2023/06/28 10:04:05;;;;;;;9.90;4.22;;;;;;;;;;5088732;28;20449;-67
2023/06/28 10:06:33;;;;;;;8.10;3.88;;;;;;;;;;5094115;28;20063;-67
2023/06/28 10:08:58;;;;;;;7.70;3.85;;;;;;;;;;5093291;28;20039;-67
2023/06/28 10:11:24;;;;;;;8.68;3.92;;;;;;;;;;5093741;28;20048;-67
2023/06/28 10:13:50;;;;;;;11.25;3.42;;;;;;;;;;5093115;28;20066;-67
2023/06/28 10:16:17;;;;;;;7.47;3.45;;;;;;;;;;5087087;28;20070;-67
2023/06/28 10:18:43;;;;;;;6.28;3.33;;;;;;;;;;5088497;28;20043;-67
2023/06/28 10:21:08;;;;;;;6.93;3.22;;;;;;;;;;5092616;28;20054;-67
2023/06/28 10:23:36;;;;;;;9.98;3.67;;;;;;;;;;5092862;28;20490;-67
2023/06/28 10:26:05;;;;;;;12.77;3.55;;;;;;;;;;5093347;28;20044;-67
2023/06/28 10:28:34;;;;;;;6.88;4.10;;;;;;;;;;5093158;28;20056;-67
2023/06/28 10:31:00;;;;;;;7.78;4.13;;;;;;;;;;5092352;28;20028;-68
2023/06/28 10:33:27;;;;;;;10.98;3.58;;;;;;;;;;5092742;28;20056;-68
2023/06/28 10:35:55;;;;;;;9.52;4.25;;;;;;;;;;5093262;28;20095;-68
2023/06/28 10:38:20;;;;;;;13.73;3.70;;;;;;;;;;5093615;28;20027;-68
2023/06/28 10:40:46;;;;;;;7.47;3.03;;;;;;;;;;5092974;28;20493;-67
2023/06/28 10:43:22;;;;;;;10.45;3.88;;;;;;;;;;5093200;28;20024;-68
2023/06/28 10:45:47;;;;;;;13.07;4.45;;;;;;;;;;5086210;28;20035;-67
2023/06/28 10:48:17;;;;;;;11.93;3.95;;;;;;;;;;5093214;28;20048;-67
2023/06/28 10:50:42;;;;;;;8.55;3.50;;;;;;;;;;5087032;28;20036;-67
2023/06/28 10:53:18;;;;;;;17.77;3.95;;;;;;;;;;5092664;28;20482;-67
2023/06/28 10:55:58;;;;;;;13.82;4.07;;;;;;;;;;5087977;28;20032;-67
2023/06/28 10:58:26;;;;;;;11.52;3.88;;;;;;;;;;5092765;28;20444;-68
2023/06/28 11:00:52;;;;;;;8.75;4.05;;;;;;;;;;5092569;28;20161;-67
2023/06/28 11:03:18;;;;;;;7.18;3.72;;;;;;;;;;5092777;28;20352;-67
2023/06/28 11:05:53;;;;;;;11.80;3.75;;;;;;;;;;5081519;28;20085;-68
2023/06/28 11:08:20;;;;;;;12.70;3.65;;;;;;;;;;5092534;28;20035;-67
2023/06/28 11:10:46;;;;;;;12.93;3.83;;;;;;;;;;5092005;28;20422;-67
2023/06/28 11:13:12;;;;;;;14.93;4.82;;;;;;;;;;5092737;28;20398;-67
2023/06/28 11:15:46;;;;;;;13.40;3.88;;;;;;;;;;5092180;28;20015;-68
2023/06/28 11:18:11;;;;;;;10.85;4.22;;;;;;;;;;5092426;28;20032;-67
2023/06/28 11:20:55;;;;;;;11.13;3.58;;;;;;;;;;5092538;28;20392;-67
2023/06/28 11:23:39;;;;;;;13.17;3.83;;;;;;;;;;5092502;28;20416;-67
2023/06/28 11:26:05;;;;;;;11.18;4.43;;;;;;;;;;5084991;28;20767;-68
2023/06/28 11:28:32;;;;;;;12.45;4.00;;;;;;;;;;5088397;28;20032;-68
2023/06/28 11:31:12;;;;;;;7.80;3.80;;;;;;;;;;5092286;28;20428;-68
2023/06/28 11:33:38;;;;;;;8.68;4.30;;;;;;;;;;5086100;28;20027;-67
2023/06/28 11:36:04;;;;;;;9.10;3.83;;;;;;;;;;5092163;28;20024;-68
2023/06/28 11:38:30;;;;;;;8.95;4.10;;;;;;;;;;5089602;28;20082;-67
2023/06/28 11:40:55;;;;;;;16.88;4.03;;;;;;;;;;5091907;28;20023;-67
2023/06/28 11:43:21;;;;;;;6.80;3.63;;;;;;;;;;5086740;28;20089;-67
2023/06/28 11:45:48;;;;;;;5.93;3.50;;;;;;;;;;5091727;28;20285;-68
2023/06/28 11:48:14;;;;;;;12.48;4.15;;;;;;;;;;5091679;28;20024;-67
2023/06/28 11:50:39;;;;;;;6.45;3.33;;;;;;;;;;5091288;28;20528;-67
2023/06/28 11:53:05;;;;;;;10.25;3.42;;;;;;;;;;5090798;28;20465;-67
2023/06/28 11:55:30;;;;;;;7.72;3.60;;;;;;;;;;5090181;28;20772;-67
2023/06/28 11:57:56;;;;;;;7.68;3.60;;;;;;;;;;5089713;28;20061;-68
2023/06/28 12:00:21;;;;;;;9.65;4.00;;;;;;;;;;5090943;28;20479;-68
2023/06/28 12:02:47;;;;;;;8.93;4.20;;;;;;;;;;5091343;28;20028;-66
2023/06/28 12:05:15;;;;;;;13.65;3.83;;;;;;;;;;5090868;28;20032;-67
2023/06/28 12:07:40;;;;;;;11.68;3.47;;;;;;;;;;5090650;28;20031;-68
2023/06/28 12:10:06;;;;;;;7.25;3.58;;;;;;;;;;5091940;28;20024;-67
2023/06/28 12:12:32;;;;;;;8.65;3.35;;;;;;;;;;5091186;28;20085;-67
2023/06/28 12:14:57;;;;;;;11.50;4.60;;;;;;;;;;5090937;28;20467;-68
2023/06/28 12:17:22;;;;;;;10.50;3.83;;;;;;;;;;5090520;28;20128;-68
2023/06/28 12:19:48;;;;;;;7.05;3.65;;;;;;;;;;5090534;28;20650;-67
2023/06/28 12:22:13;;;;;;;13.00;4.78;;;;;;;;;;5088573;28;20052;-68
2023/06/28 12:24:38;;;;;;;10.70;4.33;;;;;;;;;;5090414;28;20024;-68
2023/06/28 12:27:05;;;;;;;6.93;4.10;;;;;;;;;;5089257;28;20317;-67
2023/06/28 12:29:31;;;;;;;8.98;4.32;;;;;;;;;;5088526;28;20270;-67
2023/06/28 12:32:04;;;;;;;12.23;4.22;;;;;;;;;;5090128;28;20035;-67
2023/06/28 12:34:31;;;;;;;11.93;4.45;;;;;;;;;;5090819;28;20040;-67
2023/06/28 12:37:17;;;;;;;9.82;3.83;;;;;;;;;;5088646;28;20071;-68
2023/06/28 12:39:43;;;;;;;7.35;3.67;;;;;;;;;;5086951;28;20036;-68
2023/06/28 12:42:10;;;;;;;13.60;4.47;;;;;;;;;;5089986;28;20030;-67
2023/06/28 12:44:51;;;;;;;11.90;4.10;;;;;;;;;;5092770;28;20036;-68
2023/06/28 12:47:17;;;;;;;14.68;4.60;;;;;;;;;;5093914;28;20081;-67
2023/06/28 12:49:42;;;;;;;10.90;4.65;;;;;;;;;;5090566;28;20479;-67
2023/06/28 12:52:07;;;;;;;15.25;5.70;;;;;;;;;;5094503;28;20111;-66
2023/06/28 12:54:33;;;;;;;9.50;5.28;;;;;;;;;;5081791;28;20024;-67
2023/06/28 12:56:59;;;;;;;12.20;5.20;;;;;;;;;;5085203;28;20034;-68
2023/06/28 12:59:25;;;;;;;9.23;5.25;;;;;;;;;;5092598;28;20278;-67
2023/06/28 13:01:50;;;;;;;11.00;5.25;;;;;;;;;;5094124;28;20028;-67
2023/06/28 13:04:15;;;;;;;13.63;5.00;;;;;;;;;;5093876;28;20022;-68
2023/06/28 13:06:41;;;;;;;15.63;5.53;;;;;;;;;;5094250;28;20319;-68
2023/06/28 13:09:06;;;;;;;8.10;4.17;;;;;;;;;;5093453;28;20081;-67
2023/06/28 13:11:31;;;;;;;15.17;5.90;;;;;;;;;;5092175;28;20324;-68
2023/06/28 13:13:57;;;;;;;10.77;5.47;;;;;;;;;;5093086;28;20028;-68
2023/06/28 13:16:23;;;;;;;8.95;5.38;;;;;;;;;;5092866;28;20028;-68
2023/06/28 13:18:48;;;;;;;10.82;5.72;;;;;;;;;;5092888;28;20027;-68
2023/06/28 13:21:13;;;;;;;10.70;5.67;;;;;;;;;;5094210;28;20024;-68
2023/06/28 13:23:38;;;;;;;8.37;4.70;;;;;;;;;;5094120;28;20277;-68
2023/06/28 13:26:04;;;;;;;12.13;6.28;;;;;;;;;;5093499;28;20327;-68
2023/06/28 13:28:30;;;;;;;13.00;6.03;;;;;;;;;;5093385;28;20036;-68
2023/06/28 13:30:55;;;;;;;8.80;6.05;;;;;;;;;;5092745;28;20467;-68
2023/06/28 13:33:20;;;;;;;10.13;6.18;;;;;;;;;;5091947;28;20090;-68
2023/06/28 13:35:45;;;;;;;11.65;6.57;;;;;;;;;;5078621;28;20544;-68
2023/06/28 13:38:11;;;;;;;9.73;6.27;;;;;;;;;;5092142;28;20032;-68
2023/06/28 13:40:37;;;;;;;18.10;6.47;;;;;;;;;;5093871;28;20381;-68
2023/06/28 13:43:04;;;;;;;9.77;5.65;;;;;;;;;;5093592;28;20296;-68
2023/06/28 13:45:29;;;;;;;9.50;6.28;;;;;;;;;;5093339;28;20016;-68
2023/06/28 13:47:55;;;;;;;19.60;7.10;;;;;;;;;;5093592;28;20020;-68
2023/06/28 13:50:20;;;;;;;18.00;7.63;;;;;;;;;;5093024;28;20286;-68
2023/06/28 13:52:45;;;;;;;12.27;8.17;;;;;;;;;;5091949;28;20274;-67
2023/06/28 13:55:10;;;;;;;12.48;7.07;;;;;;;;;;5082263;28;20038;-68
2023/06/28 13:57:36;;;;;;;17.70;7.78;;;;;;;;;;5092428;28;20016;-68
2023/06/28 14:00:01;;;;;;;10.00;6.60;;;;;;;;;;5093166;28;20016;-68
2023/06/28 14:02:27;;;;;;;11.00;6.45;;;;;;;;;;5093449;28;20442;-68
2023/06/28 14:04:52;;;;;;;16.83;8.15;;;;;;;;;;5093609;28;20034;-68
2023/06/28 14:07:17;;;;;;;10.52;7.70;;;;;;;;;;5092744;28;20036;-68
2023/06/28 14:09:43;;;;;;;13.40;7.83;;;;;;;;;;5092153;28;20425;-67
2023/06/28 14:12:08;;;;;;;12.00;7.43;;;;;;;;;;5088867;28;20265;-68
2023/06/28 14:14:33;;;;;;;13.63;7.43;;;;;;;;;;5086983;28;20267;-68
2023/06/28 14:16:59;;;;;;;11.53;7.17;;;;;;;;;;5092423;28;20059;-68
2023/06/28 14:19:24;;;;;;;11.98;7.82;;;;;;;;;;5084635;28;20312;-68
2023/06/28 14:21:49;;;;;;;12.70;7.68;;;;;;;;;;5047352;28;20048;-67
2023/06/28 14:24:15;;;;;;;15.13;8.53;;;;;;;;;;5088307;28;20028;-67
2023/06/28 14:26:40;;;;;;;13.63;8.83;;;;;;;;;;5060703;28;20309;-68
2023/06/28 14:29:05;;;;;;;12.02;8.13;;;;;;;;;;5087812;28;20274;-68
2023/06/28 14:31:31;;;;;;;13.77;9.00;;;;;;;;;;5086662;28;20128;-68